createdAt,value
2023-02-19T00:00:01.848Z,101666.06
2023-02-19T00:02:29.768Z,101669.91
2023-02-19T00:04:57.612Z,101664.88
2023-02-19T00:07:25.410Z,101672.69
2023-02-19T00:09:54.758Z,101663.44
2023-02-19T00:12:22.532Z,101662.66
2023-02-19T00:14:50.299Z,101663.88
2023-02-19T00:17:18.055Z,101657.97
2023-02-19T00:19:45.844Z,101667.38
2023-02-19T00:22:13.640Z,101670.50
2023-02-19T00:24:41.482Z,101670.97
2023-02-19T00:27:10.604Z,101669.00
2023-02-19T00:29:38.439Z,101677.94
2023-02-19T00:32:06.296Z,101675.63
2023-02-19T00:34:34.194Z,101683.38
2023-02-19T00:37:01.992Z,101682.16
2023-02-19T00:39:29.812Z,101678.69
2023-02-19T00:41:57.612Z,101688.81
2023-02-19T00:44:27.383Z,101677.16
2023-02-19T00:46:55.263Z,101681.41
2023-02-19T00:49:24.439Z,101681.41
2023-02-19T00:51:53.678Z,101679.13
2023-02-19T00:54:22.627Z,101679.13
2023-02-19T00:56:50.596Z,101680.31
2023-02-19T00:59:18.707Z,101681.06
2023-02-19T01:01:49.500Z,101685.75
2023-02-19T01:04:18.455Z,101686.97
2023-02-19T01:06:46.406Z,101695.16
2023-02-19T01:09:14.171Z,101694.69
2023-02-19T01:11:42.398Z,101691.97
2023-02-19T01:14:10.621Z,101695.16
2023-02-19T01:16:38.429Z,101704.84
2023-02-19T01:19:07.703Z,101700.94
2023-02-19T01:21:35.483Z,101709.13
2023-02-19T01:24:04.466Z,101713.78
2023-02-19T01:26:33.912Z,101713.03
2023-02-19T01:29:04.638Z,101713.88
2023-02-19T01:31:32.826Z,101710.41
2023-02-19T01:34:04.264Z,101717.78
2023-02-19T01:36:34.624Z,101719.75
2023-02-19T01:39:04.922Z,101720.97
2023-02-19T01:41:36.256Z,101714.41
2023-02-19T01:44:07.877Z,101715.94
2023-02-19T01:46:37.933Z,101717.91
2023-02-19T01:49:11.148Z,101717.56
2023-02-19T01:51:45.846Z,101714.50
2023-02-19T01:54:17.430Z,101724.28
2023-02-19T01:56:49.270Z,101722.75
2023-02-19T01:59:17.681Z,101717.72
2023-02-19T02:01:45.996Z,101718.16
2023-02-19T02:04:15.717Z,101725.56
2023-02-19T02:06:50.270Z,101722.91
2023-02-19T02:09:37.046Z,101720.97
2023-02-19T02:12:05.248Z,101719.88
2023-02-19T02:14:36.836Z,101722.16
2023-02-19T02:17:12.935Z,101720.72
2023-02-19T02:20:02.568Z,101719.59
2023-02-19T02:22:37.158Z,101725.81
2023-02-19T02:25:34.300Z,101724.28
2023-02-19T02:28:15.367Z,101722.78
2023-02-19T02:30:47.280Z,101724.72
2023-02-19T02:33:27.798Z,101728.63
2023-02-19T02:35:59.152Z,101726.66
2023-02-19T02:38:31.082Z,101727.09
2023-02-19T02:40:59.506Z,101729.81
2023-02-19T02:43:27.423Z,101739.53
2023-02-19T02:45:56.776Z,101735.25
2023-02-19T02:48:36.883Z,101734.50
2023-02-19T02:51:11.461Z,101737.97
2023-02-19T02:54:07.678Z,101737.22
2023-02-19T02:56:36.747Z,101744.63
2023-02-19T02:59:09.011Z,101743.13
2023-02-19T03:02:01.605Z,101736.47
2023-02-19T03:04:34.204Z,101749.75
2023-02-19T03:07:09.115Z,101746.59
2023-02-19T03:09:43.227Z,101746.25
2023-02-19T03:12:34.148Z,101757.56
2023-02-19T03:15:26.217Z,101761.84
2023-02-19T03:18:19.071Z,101767.28
2023-02-19T03:20:51.658Z,101761.84
2023-02-19T03:23:42.482Z,101752.13
2023-02-19T03:26:10.576Z,101760.28
2023-02-19T03:29:03.836Z,101766.94
2023-02-19T03:31:34.134Z,101757.22
2023-02-19T03:34:09.535Z,101768.56
2023-02-19T03:36:43.286Z,101765.06
2023-02-19T03:39:14.190Z,101774.44
2023-02-19T03:41:49.861Z,101769.75
2023-02-19T03:44:24.827Z,101773.25
2023-02-19T03:47:03.473Z,101774.00
2023-02-19T03:49:43.294Z,101779.47
2023-02-19T03:52:17.595Z,101788.03
2023-02-19T03:54:50.675Z,101787.28
2023-02-19T03:57:21.899Z,101791.19
2023-02-19T03:59:54.839Z,101793.59
2023-02-19T04:02:30.691Z,101799.88
2023-02-19T04:05:08.392Z,101804.53
2023-02-19T04:07:40.190Z,101804.53
2023-02-19T04:10:10.656Z,101807.69
2023-02-19T04:12:49.456Z,101813.56
2023-02-19T04:15:21.853Z,101819.84
2023-02-19T04:17:55.942Z,101817.56
2023-02-19T04:20:28.641Z,101826.50
2023-02-19T04:22:58.019Z,101836.19
2023-02-19T04:25:28.045Z,101826.16
2023-02-19T04:27:56.147Z,101822.66
2023-02-19T04:30:23.951Z,101826.16
2023-02-19T04:32:51.871Z,101835.50
2023-02-19T04:35:19.631Z,101828.50
2023-02-19T04:37:48.820Z,101840.16
2023-02-19T04:40:16.665Z,101847.94
2023-02-19T04:42:44.466Z,101845.97
2023-02-19T04:45:12.247Z,101856.09
2023-02-19T04:47:39.987Z,101870.06
2023-02-19T04:50:08.133Z,101870.06
2023-02-19T04:52:35.902Z,101867.69
2023-02-19T04:55:05.319Z,101877.81
2023-02-19T04:57:33.056Z,101869.66
2023-02-19T05:00:00.800Z,101885.22
2023-02-19T05:02:28.745Z,101893.81
2023-02-19T05:04:56.465Z,101887.16
2023-02-19T05:07:24.245Z,101887.16
2023-02-19T05:09:52.009Z,101897.31
2023-02-19T05:12:21.162Z,101895.00
2023-02-19T05:14:48.906Z,101889.53
2023-02-19T05:17:16.663Z,101897.72
2023-02-19T05:19:44.443Z,101898.06
2023-02-19T05:22:12.181Z,101902.75
2023-02-19T05:24:40.038Z,101910.91
2023-02-19T05:27:07.798Z,101903.16
2023-02-19T05:29:36.883Z,101912.53
2023-02-19T05:32:04.733Z,101914.50
2023-02-19T05:34:32.632Z,101913.69
2023-02-19T05:37:00.378Z,101918.38
2023-02-19T05:39:28.220Z,101916.84
2023-02-19T05:41:56.048Z,101914.13
2023-02-19T05:44:23.900Z,101918.03
2023-02-19T05:46:53.023Z,101919.22
2023-02-19T05:49:20.782Z,101916.16
2023-02-19T05:51:51.508Z,101919.63
2023-02-19T05:54:19.317Z,101914.53
2023-02-19T05:56:47.093Z,101912.22
2023-02-19T05:59:17.738Z,101925.09
2023-02-19T06:01:46.271Z,101929.34
2023-02-19T06:04:17.235Z,101939.06
2023-02-19T06:06:45.090Z,101945.25
2023-02-19T06:09:13.054Z,101939.06
2023-02-19T06:11:43.316Z,101930.88
2023-02-19T06:14:12.999Z,101943.75
2023-02-19T06:16:40.784Z,101948.41
2023-02-19T06:19:08.619Z,101958.53
2023-02-19T06:21:37.749Z,101963.97
2023-02-19T06:24:07.149Z,101966.38
2023-02-19T06:26:35.013Z,101972.97
2023-02-19T06:29:02.859Z,101983.13
2023-02-19T06:31:30.684Z,101984.28
2023-02-19T06:33:58.536Z,101987.09
2023-02-19T06:36:26.524Z,101983.25
2023-02-19T06:38:55.634Z,101981.69
2023-02-19T06:41:23.419Z,101990.28
2023-02-19T06:43:51.176Z,101990.28
2023-02-19T06:46:19.014Z,101984.84
2023-02-19T06:48:47.106Z,101998.09
2023-02-19T06:51:18.581Z,102003.19
2023-02-19T06:53:46.835Z,102004.38
2023-02-19T06:56:25.618Z,102000.50
2023-02-19T06:58:53.966Z,102012.59
2023-02-19T07:01:22.036Z,102009.47
2023-02-19T07:03:49.904Z,102020.78
2023-02-19T07:06:17.693Z,102011.41
2023-02-19T07:08:45.455Z,102027.34
2023-02-19T07:11:13.378Z,102027.34
2023-02-19T07:13:42.665Z,102041.31
2023-02-19T07:16:11.073Z,102035.50
2023-02-19T07:18:40.355Z,102037.06
2023-02-19T07:21:10.181Z,102046.38
2023-02-19T07:23:39.065Z,102053.03
2023-02-19T07:26:10.158Z,102061.13
2023-02-19T07:28:37.783Z,102064.22
2023-02-19T07:31:07.037Z,102076.66
2023-02-19T07:33:34.819Z,102073.50
2023-02-19T07:36:02.776Z,102064.16
2023-02-19T07:38:30.672Z,102080.84
2023-02-19T07:41:00.213Z,102088.59
2023-02-19T07:43:30.047Z,102086.59
2023-02-19T07:45:58.007Z,102085.34
2023-02-19T07:48:27.229Z,102080.25
2023-02-19T07:50:55.272Z,102090.38
2023-02-19T07:53:24.072Z,102084.94
2023-02-19T07:55:51.870Z,102100.84
2023-02-19T07:58:20.180Z,102098.13
2023-02-19T08:00:48.049Z,102102.41
2023-02-19T08:03:14.961Z,102104.28
2023-02-19T08:05:44.999Z,102112.81
2023-02-19T08:08:14.743Z,102113.22
2023-02-19T08:11:00.903Z,102109.66
2023-02-19T08:13:30.812Z,102116.72
2023-02-19T08:16:19.924Z,102123.75
2023-02-19T08:18:52.142Z,102120.22
2023-02-19T08:21:21.407Z,102124.75
2023-02-19T08:23:51.152Z,102136.34
2023-02-19T08:26:19.243Z,102133.53
2023-02-19T08:28:47.046Z,102147.22
2023-02-19T08:31:15.485Z,102150.72
2023-02-19T08:33:43.473Z,102154.28
2023-02-19T08:36:12.248Z,102156.69
2023-02-19T08:38:41.379Z,102158.66
2023-02-19T08:41:12.627Z,102159.38
2023-02-19T08:43:41.432Z,102164.69
2023-02-19T08:46:10.943Z,102166.81
2023-02-19T08:48:39.257Z,102174.34
2023-02-19T08:51:09.610Z,102172.00
2023-02-19T08:53:39.374Z,102170.47
2023-02-19T08:56:09.825Z,102172.22
2023-02-19T08:58:37.800Z,102164.47
2023-02-19T09:01:09.574Z,102173.03
2023-02-19T09:03:37.719Z,102174.09
2023-02-19T09:06:05.778Z,102178.50
2023-02-19T09:08:33.779Z,102166.00
2023-02-19T09:11:03.395Z,102174.31
2023-02-19T09:13:32.703Z,102175.38
2023-02-19T09:16:00.539Z,102185.59
2023-02-19T09:18:28.395Z,102191.66
2023-02-19T09:20:57.677Z,102201.56
2023-02-19T09:23:25.506Z,102194.47
2023-02-19T09:25:58.553Z,102204.00
2023-02-19T09:28:26.545Z,102197.94
2023-02-19T09:30:56.004Z,102206.66
2023-02-19T09:33:23.927Z,102224.56
2023-02-19T09:35:51.862Z,102233.94
2023-02-19T09:38:19.607Z,102233.59
2023-02-19T09:40:47.483Z,102236.59
2023-02-19T09:43:23.040Z,102242.88
2023-02-19T09:45:56.034Z,102249.28
2023-02-19T09:48:25.275Z,102254.38
2023-02-19T09:50:53.102Z,102269.81
2023-02-19T09:53:24.855Z,102266.81
2023-02-19T09:55:53.742Z,102267.22
2023-02-19T09:58:27.331Z,102273.44
2023-02-19T10:00:56.749Z,102277.84
2023-02-19T10:03:31.766Z,102273.31
2023-02-19T10:06:01.787Z,102276.38
2023-02-19T10:08:33.842Z,102287.16
2023-02-19T10:11:04.061Z,102297.63
2023-02-19T10:13:36.488Z,102318.53
2023-02-19T10:16:06.984Z,102316.88
2023-02-19T10:18:41.195Z,102318.84
2023-02-19T10:21:12.524Z,102328.41
2023-02-19T10:23:41.772Z,102340.28
2023-02-19T10:26:09.558Z,102336.22
2023-02-19T10:28:37.736Z,102336.97
2023-02-19T10:31:12.692Z,102347.47
2023-02-19T10:33:51.632Z,102352.03
2023-02-19T10:36:29.250Z,102362.59
2023-02-19T10:38:58.874Z,102353.28
2023-02-19T10:41:28.525Z,102355.94
2023-02-19T10:44:01.955Z,102357.97
2023-02-19T10:46:33.200Z,102354.56
2023-02-19T10:49:04.926Z,102364.94
2023-02-19T10:51:35.950Z,102359.56
2023-02-19T10:54:08.018Z,102366.66
2023-02-19T10:56:38.510Z,102357.09
2023-02-19T10:59:27.637Z,102356.59
2023-02-19T11:01:57.474Z,102352.53
2023-02-19T11:04:27.962Z,102350.97
2023-02-19T11:06:57.377Z,102333.50
2023-02-19T11:09:29.636Z,102341.00
2023-02-19T11:11:59.310Z,102347.19
2023-02-19T11:14:30.737Z,102357.34
2023-02-19T11:17:00.964Z,102366.38
2023-02-19T11:19:37.340Z,102356.22
2023-02-19T11:22:21.088Z,102365.56
2023-02-19T11:24:51.799Z,102366.66
2023-02-19T11:27:23.928Z,102373.25
2023-02-19T11:29:52.123Z,102378.22
2023-02-19T11:32:30.766Z,102371.44
2023-02-19T11:35:22.417Z,102364.09
2023-02-19T11:37:56.590Z,102368.84
2023-02-19T11:40:38.984Z,102373.13
2023-02-19T11:43:21.881Z,102381.53
2023-02-19T11:45:59.438Z,102383.47
2023-02-19T11:48:41.231Z,102383.97
2023-02-19T11:51:28.142Z,102386.78
2023-02-19T11:54:09.765Z,102377.75
2023-02-19T11:56:40.096Z,102373.78
2023-02-19T11:59:16.981Z,102373.91
2023-02-19T12:02:17.809Z,102375.22
2023-02-19T12:05:05.497Z,102384.34
2023-02-19T12:07:57.638Z,102379.97
2023-02-19T12:10:35.932Z,102379.69
2023-02-19T12:13:12.373Z,102376.16
2023-02-19T12:19:11.750Z,102386.63
2023-02-19T12:21:54.776Z,102379.19
2023-02-19T12:24:34.711Z,102397.16
2023-02-19T12:27:21.296Z,102396.06
2023-02-19T12:30:02.433Z,102382.03
2023-02-19T12:32:44.032Z,102381.94
2023-02-19T12:35:45.942Z,102389.47
2023-02-19T12:38:23.554Z,102397.69
2023-02-19T12:41:10.270Z,102404.34
2023-02-19T12:43:41.525Z,102405.56
2023-02-19T12:46:15.503Z,102401.34
2023-02-19T12:48:50.351Z,102407.31
2023-02-19T12:51:24.358Z,102419.19
2023-02-19T12:53:57.934Z,102422.38
2023-02-19T12:56:31.926Z,102422.31
2023-02-19T12:59:04.634Z,102430.47
2023-02-19T13:01:36.623Z,102442.53
2023-02-19T13:04:18.596Z,102445.44
2023-02-19T13:06:51.392Z,102434.19
2023-02-19T13:09:23.415Z,102436.88
2023-02-19T13:11:58.520Z,102435.16
2023-02-19T13:14:31.667Z,102447.66
2023-02-19T13:17:05.027Z,102451.16
2023-02-19T13:19:34.458Z,102463.94
2023-02-19T13:22:30.506Z,102468.66
2023-02-19T13:24:58.856Z,102468.84
2023-02-19T13:27:41.893Z,102480.59
2023-02-19T13:30:23.390Z,102486.56
2023-02-19T13:33:00.680Z,102490.50
2023-02-19T13:35:55.067Z,102481.63
2023-02-19T13:38:23.624Z,102477.75
2023-02-19T13:40:56.737Z,102483.13
2023-02-19T13:43:27.852Z,102478.78
2023-02-19T13:45:58.288Z,102490.09
2023-02-19T13:48:29.625Z,102496.34
2023-02-19T13:51:41.145Z,102499.41
2023-02-19T13:54:23.604Z,102506.81
2023-02-19T13:57:12.311Z,102506.88
2023-02-19T13:59:41.649Z,102505.59
2023-02-19T14:02:29.103Z,102503.22
2023-02-19T14:05:00.212Z,102497.31
2023-02-19T14:07:45.779Z,102501.91
2023-02-19T14:10:34.636Z,102510.38
2023-02-19T14:13:02.429Z,102510.69
2023-02-19T14:15:44.191Z,102511.69
2023-02-19T14:18:43.803Z,102508.59
2023-02-19T14:21:18.167Z,102496.09
2023-02-19T14:23:52.226Z,102495.94
2023-02-19T14:26:20.967Z,102498.75
2023-02-19T14:28:50.336Z,102493.97
2023-02-19T14:31:33.201Z,102493.28
2023-02-19T14:34:02.047Z,102483.47
2023-02-19T14:36:50.309Z,102469.81
2023-02-19T14:39:20.638Z,102475.94
2023-02-19T14:41:51.449Z,102461.16
2023-02-19T14:44:23.386Z,102468.81
2023-02-19T14:46:58.658Z,102458.00
2023-02-19T14:49:31.758Z,102457.84
2023-02-19T14:52:02.192Z,102459.03
2023-02-19T14:54:42.466Z,102452.78
2023-02-19T14:57:16.270Z,102462.31
2023-02-19T14:59:55.249Z,102452.09
2023-02-19T15:02:25.985Z,102439.22
2023-02-19T15:04:57.477Z,102443.13
2023-02-19T15:07:29.129Z,102439.94
2023-02-19T15:10:02.903Z,102441.75
2023-02-19T15:12:36.758Z,102436.22
2023-02-19T15:15:06.495Z,102452.53
2023-02-19T15:17:41.457Z,102455.66
2023-02-19T15:20:17.380Z,102465.91
2023-02-19T15:22:46.309Z,102485.88
2023-02-19T15:25:19.066Z,102480.19
2023-02-19T15:27:46.956Z,102487.06
2023-02-19T15:30:24.026Z,102509.91
2023-02-19T15:32:57.591Z,102502.97
2023-02-19T15:35:27.399Z,102505.03
2023-02-19T15:37:56.452Z,102512.47
2023-02-19T15:40:30.462Z,102524.56
2023-02-19T15:43:00.110Z,102516.09
2023-02-19T15:45:32.403Z,102515.81
2023-02-19T15:48:08.246Z,102516.28
2023-02-19T15:50:40.171Z,102516.34
2023-02-19T15:53:10.678Z,102500.91
2023-02-19T15:55:43.731Z,102494.03
2023-02-19T15:58:19.019Z,102498.72
2023-02-19T16:00:50.375Z,102501.13
2023-02-19T16:03:22.022Z,102508.53
2023-02-19T16:06:00.365Z,102515.94
2023-02-19T16:08:31.103Z,102524.16
2023-02-19T16:11:00.674Z,102538.13
2023-02-19T16:13:30.654Z,102538.94
2023-02-19T16:16:07.353Z,102544.44
2023-02-19T16:18:36.825Z,102547.59
2023-02-19T16:21:09.497Z,102554.28
2023-02-19T16:23:43.059Z,102551.22
2023-02-19T16:26:11.199Z,102550.50
2023-02-19T16:28:40.715Z,102552.84
2023-02-19T16:31:11.116Z,102556.72
2023-02-19T16:33:42.482Z,102554.81
2023-02-19T16:36:35.081Z,102554.44
2023-02-19T16:39:17.410Z,102558.34
2023-02-19T16:42:15.842Z,102559.94
2023-02-19T16:44:52.748Z,102553.72
2023-02-19T16:47:30.072Z,102549.09
2023-02-19T16:50:02.474Z,102561.16
2023-02-19T16:52:31.237Z,102565.06
2023-02-19T16:54:59.348Z,102579.44
2023-02-19T16:57:27.151Z,102574.38
2023-02-19T16:59:54.934Z,102570.50
2023-02-19T17:02:25.706Z,102569.75
2023-02-19T17:04:55.186Z,102552.28
2023-02-19T17:07:26.055Z,102544.50
2023-02-19T17:09:54.123Z,102549.19
2023-02-19T17:12:23.175Z,102554.63
2023-02-19T17:14:50.953Z,102558.09
2023-02-19T17:17:18.736Z,102556.94
2023-02-19T17:19:48.452Z,102558.53
2023-02-19T17:22:17.749Z,102559.28
2023-02-19T17:24:50.852Z,102563.19
2023-02-19T17:30:15.000Z,102576.38
2023-02-19T17:32:42.820Z,102579.13
2023-02-19T17:35:10.666Z,102585.72
2023-02-19T17:37:38.497Z,102576.81
2023-02-19T17:40:31.750Z,102584.56
2023-02-19T17:43:00.381Z,102593.50
2023-02-19T17:45:28.255Z,102600.09
2023-02-19T17:47:56.049Z,102603.22
2023-02-19T17:50:26.892Z,102610.97
2023-02-19T17:52:55.091Z,102610.59
2023-02-19T17:55:24.701Z,102612.53
2023-02-19T17:57:53.534Z,102612.13
2023-02-19T18:00:23.290Z,102612.91
2023-02-19T18:02:51.563Z,102607.84
2023-02-19T18:05:19.989Z,102605.53
2023-02-19T18:07:48.859Z,102603.22
2023-02-19T18:10:18.868Z,102601.66
2023-02-19T18:12:48.463Z,102595.84
2023-02-19T18:15:18.745Z,102586.13
2023-02-19T18:17:46.611Z,102588.47
2023-02-19T18:20:15.790Z,102589.25
2023-02-19T18:22:43.710Z,102581.88
2023-02-19T18:25:12.046Z,102583.81
2023-02-19T18:27:40.314Z,102580.72
2023-02-19T18:30:10.664Z,102574.50
2023-02-19T18:32:38.970Z,102576.84
2023-02-19T18:35:07.414Z,102579.97
2023-02-19T18:37:35.527Z,102580.34
2023-02-19T18:40:04.455Z,102579.56
2023-02-19T18:42:32.322Z,102584.22
2023-02-19T18:45:00.431Z,102586.94
2023-02-19T18:47:29.546Z,102578.41
2023-02-19T18:49:58.519Z,102589.66
2023-02-19T18:52:27.924Z,102588.09
2023-02-19T18:54:57.264Z,102579.16
2023-02-19T18:57:25.978Z,102583.03
2023-02-19T18:59:54.384Z,102589.25
2023-02-19T19:02:22.608Z,102583.41
2023-02-19T19:04:54.127Z,102586.50
2023-02-19T19:07:22.563Z,102572.56
2023-02-19T19:09:50.979Z,102587.63
2023-02-19T19:12:18.843Z,102586.88
2023-02-19T19:14:46.886Z,102593.44
2023-02-19T19:17:14.699Z,102594.59
2023-02-19T19:19:44.519Z,102589.91
2023-02-19T19:22:13.797Z,102594.19
2023-02-19T19:24:41.617Z,102605.81
2023-02-19T19:27:09.410Z,102600.00
2023-02-19T19:29:37.386Z,102600.69
2023-02-19T19:32:08.359Z,102610.38
2023-02-19T19:34:36.585Z,102610.34
2023-02-19T19:37:04.381Z,102609.94
2023-02-19T19:39:33.507Z,102604.50
2023-02-19T19:42:01.298Z,102602.13
2023-02-19T19:44:29.115Z,102598.59
2023-02-19T19:46:56.912Z,102609.03
2023-02-19T19:49:24.978Z,102597.78
2023-02-19T19:51:52.807Z,102606.69
2023-02-19T19:54:20.607Z,102600.47
2023-02-19T19:56:50.868Z,102602.41
2023-02-19T19:59:19.031Z,102599.28
2023-02-19T20:01:51.319Z,102589.16
2023-02-19T20:04:20.050Z,102592.22
2023-02-19T20:06:48.177Z,102587.56
2023-02-19T20:09:17.136Z,102594.13
2023-02-19T20:11:46.632Z,102600.66
2023-02-19T20:14:16.950Z,102599.84
2023-02-19T20:16:44.910Z,102605.63
2023-02-19T20:19:12.737Z,102603.28
2023-02-19T20:21:40.546Z,102588.16
2023-02-19T20:24:08.782Z,102592.38
2023-02-19T20:26:36.687Z,102581.56
2023-02-19T20:29:06.144Z,102585.38
2023-02-19T20:31:35.452Z,102589.63
2023-02-19T20:34:03.338Z,102590.75
2023-02-19T20:36:32.289Z,102591.91
2023-02-19T20:39:00.077Z,102593.84
2023-02-19T20:41:27.885Z,102596.91
2023-02-19T20:43:55.688Z,102594.97
2023-02-19T20:46:23.515Z,102594.94
2023-02-19T20:48:52.724Z,102589.88
2023-02-19T20:51:20.501Z,102596.81
2023-02-19T20:53:48.602Z,102592.91
2023-02-19T20:56:16.402Z,102588.63
2023-02-19T20:58:44.203Z,102588.22
2023-02-19T21:01:12.684Z,102590.94
2023-02-19T21:03:40.513Z,102578.94
2023-02-19T21:06:10.013Z,102572.34
2023-02-19T21:08:40.104Z,102573.47
2023-02-19T21:11:08.997Z,102556.06
2023-02-19T21:13:36.976Z,102539.81
2023-02-19T21:16:05.041Z,102533.59
2023-02-19T21:18:32.791Z,102543.63
2023-02-19T21:21:00.687Z,102545.53
2023-02-19T21:23:29.870Z,102544.75
2023-02-19T21:25:57.735Z,102548.25
2023-02-19T21:28:25.830Z,102550.94
2023-02-19T21:30:53.681Z,102544.00
2023-02-19T21:33:21.504Z,102539.34
2023-02-19T21:35:49.251Z,102535.88
2023-02-19T21:38:17.022Z,102545.53
2023-02-19T21:40:46.133Z,102556.34
2023-02-19T21:43:13.945Z,102559.06
2023-02-19T21:45:42.674Z,102570.25
2023-02-19T21:48:10.708Z,102565.63
2023-02-19T21:50:38.521Z,102553.66
2023-02-19T21:53:06.407Z,102554.44
2023-02-19T21:55:34.144Z,102559.47
2023-02-19T21:58:03.291Z,102566.03
2023-02-19T22:00:31.812Z,102565.25
2023-02-19T22:02:59.983Z,102562.16
2023-02-19T22:05:27.766Z,102549.75
2023-02-19T22:07:55.649Z,102544.00
2023-02-19T22:10:23.417Z,102547.84
2023-02-19T22:12:51.176Z,102552.88
2023-02-19T22:15:20.336Z,102556.00
2023-02-19T22:17:48.134Z,102559.06
2023-02-19T22:20:17.202Z,102548.25
2023-02-19T22:22:45.010Z,102550.16
2023-02-19T22:25:12.766Z,102546.28
2023-02-19T22:27:40.577Z,102545.94
2023-02-19T22:30:09.259Z,102540.47
2023-02-19T22:32:38.616Z,102538.16
2023-02-19T22:35:07.208Z,102531.59
2023-02-19T22:37:34.954Z,102522.34
2023-02-19T22:40:02.855Z,102524.66
2023-02-19T22:42:30.702Z,102530.81
2023-02-19T22:44:58.468Z,102524.66
2023-02-19T22:47:26.264Z,102527.75
2023-02-19T22:49:55.401Z,102519.22
2023-02-19T22:52:24.001Z,102527.28
2023-02-19T22:54:53.578Z,102515.34
2023-02-19T22:57:21.414Z,102511.84
2023-02-19T22:59:49.226Z,102508.00
2023-02-19T23:02:17.063Z,102509.53
2023-02-19T23:04:45.199Z,102510.31
2023-02-19T23:07:14.350Z,102501.84
2023-02-19T23:09:42.110Z,102492.22
2023-02-19T23:12:11.700Z,102501.88
2023-02-19T23:14:39.503Z,102483.72
2023-02-19T23:17:07.724Z,102492.25
2023-02-19T23:19:35.542Z,102494.97
2023-02-19T23:22:03.475Z,102488.84
2023-02-19T23:24:32.984Z,102486.13
2023-02-19T23:27:00.788Z,102493.88
2023-02-19T23:29:30.693Z,102492.38
2023-02-19T23:32:00.295Z,102489.31
2023-02-19T23:34:28.196Z,102497.41
2023-02-19T23:36:56.383Z,102499.38
2023-02-19T23:39:24.131Z,102502.88
2023-02-19T23:41:55.075Z,102514.50
2023-02-19T23:44:24.074Z,102506.81
2023-02-19T23:46:52.610Z,102499.84
2023-02-19T23:49:20.933Z,102501.03
2023-02-19T23:51:48.856Z,102485.22
2023-02-19T23:54:16.974Z,102473.63
2023-02-19T23:56:44.784Z,102462.44
2023-02-19T23:59:13.932Z,102463.19
